Observation data for Friona on 12/10/2018      Previous  Date       Current Mesonet Observations  Soil Data  Daily Summary Page  Observations in Plain Language
KFAS 100600Z 28003KT M07/M09 A3038 RMK A01 T10721092  RH  085%=      5-min Rain = 0
KFAS 100605Z 25005KT M07/M09 A3038 RMK A01 T10731092  RH  086%=      5-min Rain = 0
KFAS 100610Z 26005KT M07/M09 A3038 RMK A01 T10741093  RH  086%=      5-min Rain = 0
KFAS 100615Z 28004KT M07/M09 A3038 RMK A01 T10711089  RH  087%=      5-min Rain = 0
KFAS 100620Z 28004KT M07/M09 A3038 RMK A01 T10701090  RH  086%=      5-min Rain = 0
KFAS 100625Z 26004KT M07/M10 A3038 RMK A01 T10741095  RH  085%=      5-min Rain = 0
KFAS 100630Z 25006KT M08/M09 A3038 RMK A01 T10751094  RH  086%=      5-min Rain = 0
KFAS 100635Z 27005KT M07/M09 A3037 RMK A01 T10731091  RH  086%=      5-min Rain = 0
KFAS 100640Z 28004KT M07/M09 A3037 RMK A01 T10721092  RH  086%=      5-min Rain = 0
KFAS 100645Z 30004KT M08/M10 A3037 RMK A01 T10771098  RH  085%=      5-min Rain = 0
KFAS 100650Z 28004KT M08/M10 A3037 RMK A01 T10781096  RH  086%=      5-min Rain = 0
KFAS 100655Z 26004KT M08/M10 A3036 RMK A01 T10781096  RH  087%=      5-min Rain = 0
KFAS 100700Z 27004KT M08/M10 A3036 RMK A01 T10791096  RH  087%=      5-min Rain = 0
KFAS 100705Z 26005KT M08/M09 A3036 RMK A01 T10771094  RH  087%=      5-min Rain = 0
KFAS 100710Z 25005KT M08/M10 A3036 RMK A01 T10781096  RH  086%=      5-min Rain = 0
KFAS 100715Z 26005KT M08/M09 A3036 RMK A01 T10761093  RH  087%=      5-min Rain = 0
KFAS 100720Z 26004KT M07/M09 A3035 RMK A01 T10721089  RH  087%=      5-min Rain = 0
KFAS 100725Z 27003KT M07/M09 A3035 RMK A01 T10701089  RH  086%=      5-min Rain = 0
KFAS 100730Z 26004KT M07/M09 A3035 RMK A01 T10731093  RH  085%=      5-min Rain = 0
KFAS 100735Z 26004KT M08/M10 A3035 RMK A01 T10761096  RH  085%=      5-min Rain = 0
KFAS 100740Z 28003KT M08/M10 A3035 RMK A01 T10771096  RH  086%=      5-min Rain = 0
KFAS 100745Z 27005KT M08/M10 A3035 RMK A01 T10771096  RH  087%=      5-min Rain = 0
KFAS 100750Z 27005KT M08/M10 A3035 RMK A01 T10781096  RH  087%=      5-min Rain = 0
KFAS 100755Z 27005KT M08/M10 A3034 RMK A01 T10781095  RH  087%=      5-min Rain = 0
KFAS 100800Z 26006KT M08/M09 A3034 RMK A01 T10761091  RH  089%=      5-min Rain = 0
KFAS 100805Z 27005KT M08/M09 A3034 RMK A01 T10751091  RH  088%=      5-min Rain = 0
KFAS 100810Z 28005KT M07/M09 A3034 RMK A01 T10741089  RH  089%=      5-min Rain = 0
KFAS 100815Z 27004KT M08/M09 A3034 RMK A01 T10771093  RH  088%=      5-min Rain = 0
KFAS 100820Z 27004KT M08/M09 A3034 RMK A01 T10781093  RH  088%=      5-min Rain = 0
KFAS 100825Z 26005KT M08/M09 A3034 RMK A01 T10791094  RH  088%=      5-min Rain = 0
KFAS 100830Z 26005KT M08/M10 A3034 RMK A01 T10801095  RH  089%=      5-min Rain = 0
KFAS 100835Z 26006KT M08/M09 A3034 RMK A01 T10801094  RH  089%=      5-min Rain = 0
KFAS 100840Z 25006KT M08/M10 A3034 RMK A01 T10811095  RH  089%=      5-min Rain = 0
KFAS 100845Z 26007KT M08/M09 A3033 RMK A01 T10791092  RH  090%=      5-min Rain = 0
KFAS 100850Z 25007KT M08/M09 A3033 RMK A01 T10781091  RH  090%=      5-min Rain = 0
KFAS 100855Z 25007KT M08/M09 A3033 RMK A01 T10771090  RH  091%=      5-min Rain = 0
KFAS 100900Z 25008KT M07/M08 A3033 RMK A01 T10731084  RH  092%=      5-min Rain = 0
KFAS 100905Z 25007KT M07/M08 A3033 RMK A01 T10691080  RH  092%=      5-min Rain = 0
KFAS 100910Z 26006KT M07/M08 A3033 RMK A01 T10671078  RH  092%=      5-min Rain = 0
KFAS 100915Z 26006KT M07/M08 A3033 RMK A01 T10661077  RH  092%=      5-min Rain = 0
KFAS 100920Z 26007KT M07/M08 A3033 RMK A01 T10671079  RH  091%=      5-min Rain = 0
KFAS 100925Z 26007KT M07/M08 A3033 RMK A01 T10681079  RH  092%=      5-min Rain = 0
KFAS 100930Z 26007KT M07/M08 A3033 RMK A01 T10691080  RH  092%=      5-min Rain = 0
KFAS 100935Z 26007KT M07/M08 A3033 RMK A01 T10681079  RH  092%=      5-min Rain = 0
KFAS 100940Z 26007KT M07/M08 A3033 RMK A01 T10671077  RH  093%=      5-min Rain = 0
KFAS 100945Z 26007KT M07/M08 A3033 RMK A01 T10671077  RH  093%=      5-min Rain = 0
KFAS 100950Z 26007KT M07/M08 A3033 RMK A01 T10681077  RH  093%=      5-min Rain = 0
KFAS 100955Z 26007KT M07/M08 A3033 RMK A01 T10681078  RH  093%=      5-min Rain = 0
KFAS 101000Z 26006KT M07/M08 A3033 RMK A01 T10701080  RH  092%=      5-min Rain = 0
KFAS 101005Z 26006KT M07/M08 A3033 RMK A01 T10701080  RH  093%=      5-min Rain = 0
KFAS 101010Z 26006KT M07/M08 A3033 RMK A01 T10701080  RH  093%=      5-min Rain = 0
KFAS 101015Z 26006KT M07/M08 A3033 RMK A01 T10701079  RH  093%=      5-min Rain = 0
KFAS 101020Z 26006KT M07/M08 A3033 RMK A01 T10691078  RH  093%=      5-min Rain = 0
KFAS 101025Z 26005KT M07/M08 A3033 RMK A01 T10701080  RH  093%=      5-min Rain = 0
KFAS 101030Z 26005KT M07/M08 A3033 RMK A01 T10731083  RH  092%=      5-min Rain = 0
KFAS 101035Z 27004KT M08/M09 A3032 RMK A01 T10751085  RH  092%=      5-min Rain = 0
KFAS 101040Z 27004KT M07/M08 A3032 RMK A01 T10741083  RH  093%=      5-min Rain = 0
KFAS 101045Z 26005KT M07/M08 A3032 RMK A01 T10741083  RH  093%=      5-min Rain = 0
KFAS 101050Z 26006KT M08/M09 A3032 RMK A01 T10761085  RH  093%=      5-min Rain = 0
KFAS 101055Z 25007KT M08/M09 A3032 RMK A01 T10761085  RH  093%=      5-min Rain = 0
KFAS 101100Z 25007KT M08/M09 A3032 RMK A01 T10781086  RH  093%=      5-min Rain = 0
KFAS 101105Z 26007KT M08/M08 A3032 RMK A01 T10751082  RH  094%=      5-min Rain = 0
KFAS 101110Z 26006KT M07/M08 A3032 RMK A01 T10691075  RH  095%=      5-min Rain = 0
KFAS 101115Z 26007KT M06/M07 A3032 RMK A01 T10641070  RH  095%=      5-min Rain = 0
KFAS 101120Z 26006KT M06/M07 A3032 RMK A01 T10641071  RH  095%=      5-min Rain = 0
KFAS 101125Z 26007KT M06/M07 A3032 RMK A01 T10641072  RH  094%=      5-min Rain = 0
KFAS 101130Z 26007KT M07/M07 A3032 RMK A01 T10661074  RH  094%=      5-min Rain = 0
KFAS 101135Z 26007KT M07/M07 A3032 RMK A01 T10671074  RH  094%=      5-min Rain = 0
KFAS 101140Z 26007KT M07/M07 A3032 RMK A01 T10661074  RH  094%=      5-min Rain = 0
KFAS 101145Z 26007KT M07/M08 A3032 RMK A01 T10681076  RH  094%=      5-min Rain = 0
KFAS 101150Z 26006KT M07/M08 A3032 RMK A01 T10691077  RH  094%=      5-min Rain = 0
KFAS 101155Z 26006KT M07/M07 A3032 RMK A01 T10671074  RH  095%=      5-min Rain = 0
KFAS 101200Z 27005KT M07/M07 A3032 RMK A01 T10671074  RH  095%=      5-min Rain = 0
KFAS 101205Z 27005KT M07/M08 A3032 RMK A01 T10681076  RH  094%=      5-min Rain = 0
KFAS 101210Z 26005KT M07/M08 A3032 RMK A01 T10701078  RH  094%=      5-min Rain = 0
KFAS 101215Z 27004KT M07/M08 A3033 RMK A01 T10721079  RH  094%=      5-min Rain = 0
KFAS 101220Z 27004KT M08/M08 A3033 RMK A01 T10751083  RH  094%=      5-min Rain = 0
KFAS 101225Z 26004KT M08/M08 A3033 RMK A01 T10751082  RH  094%=      5-min Rain = 0
KFAS 101230Z 26004KT M07/M08 A3033 RMK A01 T10741081  RH  095%=      5-min Rain = 0
KFAS 101235Z 26004KT M07/M08 A3033 RMK A01 T10741081  RH  095%=      5-min Rain = 0
KFAS 101240Z 26006KT M07/M08 A3033 RMK A01 T10731079  RH  095%=      5-min Rain = 0
KFAS 101245Z 26006KT M07/M08 A3033 RMK A01 T10701075  RH  096%=      5-min Rain = 0
KFAS 101250Z 27006KT M07/M07 A3033 RMK A01 T10671073  RH  095%=      5-min Rain = 0
KFAS 101255Z 27005KT M07/M08 A3033 RMK A01 T10681075  RH  095%=      5-min Rain = 0
KFAS 101300Z 27005KT M07/M08 A3033 RMK A01 T10691077  RH  094%=      5-min Rain = 0
KFAS 101305Z 27004KT M07/M08 A3033 RMK A01 T10711079  RH  094%=      5-min Rain = 0
KFAS 101310Z 27004KT M07/M08 A3033 RMK A01 T10731080  RH  094%=      5-min Rain = 0
KFAS 101315Z 26004KT M07/M08 A3033 RMK A01 T10741081  RH  094%=      5-min Rain = 0
KFAS 101320Z 26004KT M08/M08 A3033 RMK A01 T10751083  RH  094%=      5-min Rain = 0
KFAS 101325Z 26006KT M08/M08 A3033 RMK A01 T10751083  RH  095%=      5-min Rain = 0
KFAS 101330Z 26008KT M07/M08 A3033 RMK A01 T10721078  RH  095%=      5-min Rain = 0
KFAS 101335Z 25010KT M07/M07 A3033 RMK A01 T10681074  RH  096%=      5-min Rain = 0
KFAS 101340Z 26009KT M06/M07 A3033 RMK A01 T10621068  RH  096%=      5-min Rain = 0
KFAS 101345Z 26008KT M06/M06 A3033 RMK A01 T10581063  RH  096%=      5-min Rain = 0
KFAS 101350Z 26009KT M06/M06 A3033 RMK A01 T10551061  RH  096%=      5-min Rain = 0
KFAS 101355Z 26009KT M05/M06 A3033 RMK A01 T10521058  RH  096%=      5-min Rain = 0
KFAS 101400Z 25011KT M05/M05 A3033 RMK A01 T10481054  RH  096%=      5-min Rain = 0
KFAS 101405Z 25010KT M04/M05 A3033 RMK A01 T10431049  RH  096%=      5-min Rain = 0
KFAS 101410Z 26010KT M04/M05 A3034 RMK A01 T10381045  RH  095%=      5-min Rain = 0
KFAS 101415Z 26010KT M04/M05 A3034 RMK A01 T10361045  RH  094%=      5-min Rain = 0
KFAS 101420Z 26010KT M04/M05 A3034 RMK A01 T10371047  RH  093%=      5-min Rain = 0
KFAS 101425Z 26009KT M04/M05 A3034 RMK A01 T10381048  RH  093%=      5-min Rain = 0
KFAS 101430Z 26009KT M04/M05 A3034 RMK A01 T10381049  RH  092%=      5-min Rain = 0
KFAS 101435Z 26009KT M04/M05 A3034 RMK A01 T10371047  RH  093%=      5-min Rain = 0
KFAS 101440Z 26008KT M03/M05 A3035 RMK A01 T10341045  RH  093%=      5-min Rain = 0
KFAS 101445Z 26007KT M03/M04 A3035 RMK A01 T10321043  RH  093%=      5-min Rain = 0
KFAS 101450Z 26007KT M03/M04 A3035 RMK A01 T10291041  RH  093%=      5-min Rain = 0
KFAS 101455Z 27006KT M03/M04 A3035 RMK A01 T10261038  RH  092%=      5-min Rain = 0
KFAS 101500Z 26007KT M02/M04 A3035 RMK A01 T10231035  RH  092%=      5-min Rain = 0
KFAS 101505Z 26007KT M02/M03 A3035 RMK A01 T10191031  RH  092%=      5-min Rain = 0
KFAS 101510Z 26007KT M02/M03 A3035 RMK A01 T10151028  RH  092%=      5-min Rain = 0
KFAS 101515Z 26006KT M01/M03 A3035 RMK A01 T10131027  RH  091%=      5-min Rain = 0
KFAS 101520Z 26007KT M01/M02 A3035 RMK A01 T10111024  RH  091%=      5-min Rain = 0
KFAS 101525Z 26007KT M01/M02 A3035 RMK A01 T10071021  RH  091%=      5-min Rain = 0
KFAS 101530Z 27005KT M00/M02 A3036 RMK A01 T10041019  RH  091%=      5-min Rain = 0
KFAS 101535Z 27005KT 00/02 A3036 RMK A01 T00-00-15  RH  090%=      5-min Rain = 0
KFAS 101540Z 26005KT 01/M01 A3036 RMK A01 T00051011  RH  090%=      5-min Rain = 0
KFAS 101545Z 26006KT 01/M01 A3036 RMK A01 T00101009  RH  088%=      5-min Rain = 0
KFAS 101550Z 26006KT 01/M01 A3036 RMK A01 T00141008  RH  087%=      5-min Rain = 0
KFAS 101555Z 26005KT 02/M01 A3036 RMK A01 T00181005  RH  086%=      5-min Rain = 0
KFAS 101600Z 25006KT 02/M00 A3035 RMK A01 T00241002  RH  084%=      5-min Rain = 0
KFAS 101605Z 25006KT 03/00 A3035 RMK A01 T00300000  RH  082%=      5-min Rain = 0
KFAS 101610Z 25006KT 04/00 A3036 RMK A01 T00350000  RH  079%=      5-min Rain = 0
KFAS 101615Z 25006KT 04/00 A3036 RMK A01 T00390001  RH  077%=      5-min Rain = 0
KFAS 101620Z 25006KT 04/00 A3036 RMK A01 T00440003  RH  075%=      5-min Rain = 0
KFAS 101625Z 27007KT 05/00 A3036 RMK A01 T00520002  RH  071%=      5-min Rain = 0
KFAS 101630Z 26007KT 06/00 A3035 RMK A01 T00570000  RH  067%=      5-min Rain = 0
KFAS 101635Z 25008KT 06/M00 A3035 RMK A01 T00631001  RH  064%=      5-min Rain = 0
KFAS 101640Z 25008KT 07/M00 A3035 RMK A01 T00671002  RH  062%=      5-min Rain = 0
KFAS 101645Z 24008KT 07/M00 A3035 RMK A01 T00711003  RH  060%=      5-min Rain = 0
KFAS 101650Z 26007KT 07/M00 A3035 RMK A01 T00731001  RH  060%=      5-min Rain = 0
KFAS 101655Z 25007KT 07/M00 A3035 RMK A01 T00741002  RH  059%=      5-min Rain = 0
KFAS 101700Z 26007KT 08/00 A3035 RMK A01 T007600-0  RH  059%=      5-min Rain = 0
KFAS 101705Z 26005KT 08/00 A3035 RMK A01 T00780001  RH  059%=      5-min Rain = 0
KFAS 101710Z 26005KT 08/00 A3035 RMK A01 T00820003  RH  058%=      5-min Rain = 0
KFAS 101715Z 28004KT 09/00 A3035 RMK A01 T00850002  RH  056%=      5-min Rain = 0
KFAS 101720Z 25004KT 09/00 A3034 RMK A01 T00870002  RH  056%=      5-min Rain = 0
KFAS 101725Z 24003KT 09/00 A3034 RMK A01 T00920004  RH  055%=      5-min Rain = 0
KFAS 101730Z 25003KT 10/00 A3034 RMK A01 T00960002  RH  053%=      5-min Rain = 0
KFAS 101735Z 25004KT 10/M00 A3033 RMK A01 T00961001  RH  052%=      5-min Rain = 0
KFAS 101740Z 24004KT 10/M00 A3033 RMK A01 T00981001  RH  051%=      5-min Rain = 0
KFAS 101745Z 24004KT 10/M00 A3033 RMK A01 T01001004  RH  049%=      5-min Rain = 0
KFAS 101750Z 24005KT 10/M01 A3033 RMK A01 T01031007  RH  047%=      5-min Rain = 0
KFAS 101755Z 24004KT 11/M01 A3033 RMK A01 T01061010  RH  045%=      5-min Rain = 0
KFAS 101800Z 26004KT 11/M01 A3032 RMK A01 T01081008  RH  045%=      5-min Rain = 0
KFAS 101805Z 23004KT 11/M02 A3032 RMK A01 T01101017  RH  042%=      5-min Rain = 0
KFAS 101810Z 23004G9KT 11/M02 A3032 RMK A01 T01111016  RH  042%=      5-min Rain = 0
KFAS 101815Z 22002G8KT 11/M02 A3031 RMK A01 T01131016  RH  041%=      5-min Rain = 0
KFAS 101820Z 21005KT 12/M02 A3031 RMK A01 T01161021  RH  039%=      5-min Rain = 0
KFAS 101825Z 22004KT 12/M02 A3031 RMK A01 T01181020  RH  039%=      5-min Rain = 0
KFAS 101830Z 21004KT 12/M02 A3031 RMK A01 T01191023  RH  037%=      5-min Rain = 0
KFAS 101835Z 23004KT 12/M02 A303 RMK A01 T01211023  RH  037%=      5-min Rain = 0
KFAS 101840Z 23007KT 12/M03 A303 RMK A01 T01231033  RH  034%=      5-min Rain = 0
KFAS 101845Z 25005G10KT 12/M04 A303 RMK A01 T01211035  RH  033%=      5-min Rain = 0
KFAS 101850Z 23007KT 12/M04 A3029 RMK A01 T01231042  RH  031%=      5-min Rain = 0
KFAS 101855Z 24006KT 12/M05 A3029 RMK A01 T01231047  RH  030%=      5-min Rain = 0
KFAS 101900Z 24005KT 12/M04 A3029 RMK A01 T01241043  RH  031%=      5-min Rain = 0
KFAS 101905Z 25006KT 13/M04 A3029 RMK A01 T01281044  RH  030%=      5-min Rain = 0
KFAS 101910Z 24007KT 13/M04 A3029 RMK A01 T01301040  RH  030%=      5-min Rain = 0
KFAS 101915Z 22007KT 13/M03 A3029 RMK A01 T01301025  RH  034%=      5-min Rain = 0
KFAS 101920Z 20008KT 13/M02 A3028 RMK A01 T01301022  RH  035%=      5-min Rain = 0
KFAS 101925Z 20008KT 13/M03 A3028 RMK A01 T01301026  RH  034%=      5-min Rain = 0
KFAS 101930Z 20007G13KT 13/M03 A3028 RMK A01 T01291027  RH  034%=      5-min Rain = 0
KFAS 101935Z 21005G11KT 13/M03 A3028 RMK A01 T01281028  RH  034%=      5-min Rain = 0
KFAS 101940Z 21007KT 13/M03 A3027 RMK A01 T01321029  RH  033%=      5-min Rain = 0
KFAS 101945Z 23006KT 13/M03 A3027 RMK A01 T01321033  RH  032%=      5-min Rain = 0
KFAS 101950Z 23005KT 14/M04 A3027 RMK A01 T01351035  RH  031%=      5-min Rain = 0
KFAS 101955Z 24009KT 14/M04 A3027 RMK A01 T01371038  RH  030%=      5-min Rain = 0
KFAS 102000Z 24006KT 14/M04 A3027 RMK A01 T01351044  RH  029%=      5-min Rain = 0
KFAS 102005Z 23007KT 14/M05 A3026 RMK A01 T01361048  RH  028%=      5-min Rain = 0
KFAS 102010Z 23007KT 14/M06 A3026 RMK A01 T01381055  RH  026%=      5-min Rain = 0
KFAS 102015Z 22007KT 14/M05 A3026 RMK A01 T01381046  RH  028%=      5-min Rain = 0
KFAS 102020Z 21008KT 14/M05 A3026 RMK A01 T01351045  RH  028%=      5-min Rain = 0
KFAS 102025Z 21010G19KT 14/M05 A3026 RMK A01 T01391054  RH  026%=      5-min Rain = 0
KFAS 102030Z 22008KT 14/M06 A3026 RMK A01 T01381058  RH  025%=      5-min Rain = 0
KFAS 102035Z 25006KT 14/M06 A3025 RMK A01 T01381064  RH  024%=      5-min Rain = 0
KFAS 102040Z 24005G10KT 14/M07 A3025 RMK A01 T01421067  RH  023%=      5-min Rain = 0
KFAS 102045Z 24009KT 14/M08 A3025 RMK A01 T01421076  RH  021%=      5-min Rain = 0
KFAS 102050Z 23007KT 14/M08 A3025 RMK A01 T01421078  RH  021%=      5-min Rain = 0
KFAS 102055Z 21009KT 14/M08 A3025 RMK A01 T01421078  RH  021%=      5-min Rain = 0
KFAS 102100Z 22009KT 14/M08 A3025 RMK A01 T01401078  RH  021%=      5-min Rain = 0
KFAS 102105Z 25007KT 14/M09 A3025 RMK A01 T01391085  RH  020%=      5-min Rain = 0
KFAS 102110Z 25008KT 14/M08 A3024 RMK A01 T01421084  RH  020%=      5-min Rain = 0
KFAS 102115Z 24006KT 14/M09 A3024 RMK A01 T01431088  RH  019%=      5-min Rain = 0
KFAS 102120Z 25009KT 14/M09 A3024 RMK A01 T01441086  RH  019%=      5-min Rain = 0
KFAS 102125Z 24009KT 14/M09 A3024 RMK A01 T01421090  RH  019%=      5-min Rain = 0
KFAS 102130Z 24009KT 14/M09 A3024 RMK A01 T01411092  RH  019%=      5-min Rain = 0
KFAS 102135Z 25009KT 14/M09 A3024 RMK A01 T01401094  RH  019%=      5-min Rain = 0
KFAS 102140Z 25009KT 14/M10 A3024 RMK A01 T01391096  RH  019%=      5-min Rain = 0
KFAS 102145Z 23008KT 14/M10 A3024 RMK A01 T01381098  RH  018%=      5-min Rain = 0
KFAS 102150Z 24009KT 14/M09 A3024 RMK A01 T01391093  RH  019%=      5-min Rain = 0
KFAS 102155Z 24009KT 14/M10 A3024 RMK A01 T01371095  RH  019%=      5-min Rain = 0
KFAS 102200Z 24008KT 14/M09 A3024 RMK A01 T01361092  RH  019%=      5-min Rain = 0
KFAS 102205Z 25008KT 14/M09 A3024 RMK A01 T01361094  RH  019%=      5-min Rain = 0
KFAS 102210Z 25008KT 13/M10 A3024 RMK A01 T01321095  RH  020%=      5-min Rain = 0
KFAS 102215Z 24009KT 13/M09 A3024 RMK A01 T01301093  RH  020%=      5-min Rain = 0
KFAS 102220Z 24007KT 13/M09 A3024 RMK A01 T01251094  RH  021%=      5-min Rain = 0
KFAS 102225Z 25007KT 12/M09 A3024 RMK A01 T01211093  RH  021%=      5-min Rain = 0
KFAS 102230Z 23007KT 12/M09 A3025 RMK A01 T01171094  RH  022%=      5-min Rain = 0
KFAS 102235Z 23008KT 11/M09 A3025 RMK A01 T01121087  RH  024%=      5-min Rain = 0
KFAS 102240Z 23008KT 11/M09 A3025 RMK A01 T01061085  RH  025%=      5-min Rain = 0
KFAS 102245Z 22007KT 10/M08 A3025 RMK A01 T01021080  RH  027%=      5-min Rain = 0
KFAS 102250Z 22006KT 10/M08 A3025 RMK A01 T00961076  RH  029%=      5-min Rain = 0
KFAS 102255Z 22006KT 09/M07 A3025 RMK A01 T00891072  RH  031%=      5-min Rain = 0
KFAS 102300Z 21006KT 08/M07 A3025 RMK A01 T00841071  RH  033%=      5-min Rain = 0
KFAS 102305Z 21006KT 08/M06 A3025 RMK A01 T00781064  RH  036%=      5-min Rain = 0
KFAS 102310Z 22007KT 07/M07 A3025 RMK A01 T00741066  RH  036%=      5-min Rain = 0
KFAS 102315Z 22007KT 07/M07 A3025 RMK A01 T00701067  RH  037%=      5-min Rain = 0
KFAS 102320Z 22007KT 07/M07 A3025 RMK A01 T00671068  RH  038%=      5-min Rain = 0
KFAS 102325Z 22006KT 06/M07 A3024 RMK A01 T00621065  RH  040%=      5-min Rain = 0
KFAS 102330Z 22005KT 06/M06 A3024 RMK A01 T00571059  RH  043%=      5-min Rain = 0
KFAS 102335Z 22004KT 06/M06 A3024 RMK A01 T00591063  RH  041%=      5-min Rain = 0
KFAS 102340Z 21004KT 06/M06 A3024 RMK A01 T00621064  RH  040%=      5-min Rain = 0
KFAS 102345Z 22004KT 06/M06 A3024 RMK A01 T00641064  RH  039%=      5-min Rain = 0
KFAS 102350Z 20004KT 07/M07 A3024 RMK A01 T00651065  RH  039%=      5-min Rain = 0
KFAS 102355Z 20005KT 06/M07 A3024 RMK A01 T00571066  RH  041%=      5-min Rain = 0
KFAS 110000Z 20005KT 05/M06 A3024 RMK A01 T00451056  RH  048%=      5-min Rain = 0
KFAS 110005Z 19005KT 04/M06 A3024 RMK A01 T00381056  RH  050%=      5-min Rain = 0
KFAS 110010Z 19007KT 03/M06 A3024 RMK A01 T00331061  RH  050%=      5-min Rain = 0
KFAS 110015Z 19007KT 03/M06 A3024 RMK A01 T00291063  RH  051%=      5-min Rain = 0
KFAS 110020Z 20007KT 03/M06 A3024 RMK A01 T00261063  RH  052%=      5-min Rain = 0
KFAS 110025Z 20007KT 03/M06 A3024 RMK A01 T00291063  RH  051%=      5-min Rain = 0
KFAS 110030Z 20008KT 03/M06 A3024 RMK A01 T00281063  RH  051%=      5-min Rain = 0
KFAS 110035Z 21009KT 03/M06 A3025 RMK A01 T00271063  RH  051%=      5-min Rain = 0
KFAS 110040Z 20009KT 02/M06 A3025 RMK A01 T00241063  RH  053%=      5-min Rain = 0
KFAS 110045Z 20008KT 02/M06 A3024 RMK A01 T00211064  RH  054%=      5-min Rain = 0
KFAS 110050Z 21007KT 02/M06 A3024 RMK A01 T00151064  RH  056%=      5-min Rain = 0
KFAS 110055Z 21007KT 01/M06 A3025 RMK A01 T00121064  RH  057%=      5-min Rain = 0
KFAS 110100Z 21008KT 01/M06 A3025 RMK A01 T00071064  RH  059%=      5-min Rain = 0
KFAS 110105Z 22008KT 00/M06 A3025 RMK A01 T00041064  RH  060%=      5-min Rain = 0
KFAS 110110Z 22007KT 00/07 A3025 RMK A01 T00-00-65  RH  062%=      5-min Rain = 0
KFAS 110115Z 22007KT M00/M07 A3025 RMK A01 T10041065  RH  063%=      5-min Rain = 0
KFAS 110120Z 22007KT M01/M07 A3025 RMK A01 T10071065  RH  065%=      5-min Rain = 0
KFAS 110125Z 22008KT M01/M07 A3025 RMK A01 T10101065  RH  066%=      5-min Rain = 0
KFAS 110130Z 22008KT M01/M06 A3025 RMK A01 T10111064  RH  067%=      5-min Rain = 0
KFAS 110135Z 22007KT M01/M07 A3025 RMK A01 T10111065  RH  067%=      5-min Rain = 0
KFAS 110140Z 22007KT M01/M07 A3025 RMK A01 T10111065  RH  067%=      5-min Rain = 0
KFAS 110145Z 22007KT M01/M07 A3025 RMK A01 T10111065  RH  067%=      5-min Rain = 0
KFAS 110150Z 21006KT M01/M07 A3025 RMK A01 T10131065  RH  068%=      5-min Rain = 0
KFAS 110155Z 21007KT M01/M06 A3025 RMK A01 T10121064  RH  068%=      5-min Rain = 0
KFAS 110200Z 20008KT M01/M07 A3025 RMK A01 T10121065  RH  068%=      5-min Rain = 0
KFAS 110205Z 20007KT M01/M07 A3025 RMK A01 T10141067  RH  067%=      5-min Rain = 0
KFAS 110210Z 21007KT M02/M07 A3026 RMK A01 T10181068  RH  069%=      5-min Rain = 0
KFAS 110215Z 21006KT M02/M07 A3026 RMK A01 T10221071  RH  069%=      5-min Rain = 0
KFAS 110220Z 20004KT M03/M07 A3026 RMK A01 T10271072  RH  071%=      5-min Rain = 0
KFAS 110225Z 20004KT M03/M07 A3025 RMK A01 T10251070  RH  072%=      5-min Rain = 0
KFAS 110230Z 21004KT M03/M07 A3025 RMK A01 T10281073  RH  071%=      5-min Rain = 0
KFAS 110235Z 23004KT M03/M07 A3026 RMK A01 T10301071  RH  073%=      5-min Rain = 0
KFAS 110240Z 25003KT M03/M07 A3026 RMK A01 T10281071  RH  072%=      5-min Rain = 0
KFAS 110245Z 28003KT M03/M07 A3026 RMK A01 T10291074  RH  071%=      5-min Rain = 0
KFAS 110250Z 26006KT M03/M08 A3026 RMK A01 T10311075  RH  072%=      5-min Rain = 0
KFAS 110255Z 26007KT M03/M07 A3026 RMK A01 T10311073  RH  073%=      5-min Rain = 0
KFAS 110300Z 26007KT M03/M07 A3026 RMK A01 T10311071  RH  074%=      5-min Rain = 0
KFAS 110305Z 25005KT M03/M08 A3026 RMK A01 T10321075  RH  072%=      5-min Rain = 0
KFAS 110310Z 25004KT M04/M09 A3026 RMK A01 T10441086  RH  072%=      5-min Rain = 0
KFAS 110315Z 24004KT M04/M08 A3026 RMK A01 T10431079  RH  076%=      5-min Rain = 0
KFAS 110320Z 20004KT M04/M08 A3026 RMK A01 T10411078  RH  075%=      5-min Rain = 0
KFAS 110325Z 22005KT M04/M08 A3026 RMK A01 T10431079  RH  076%=      5-min Rain = 0
KFAS 110330Z 23005KT M05/M08 A3026 RMK A01 T10451079  RH  078%=      5-min Rain = 0
KFAS 110335Z 24004KT M04/M07 A3026 RMK A01 T10411071  RH  079%=      5-min Rain = 0
KFAS 110340Z 25003KT M03/M07 A3026 RMK A01 T10341070  RH  076%=      5-min Rain = 0
KFAS 110345Z 24004KT M03/M07 A3026 RMK A01 T10341072  RH  075%=      5-min Rain = 0
KFAS 110350Z 22003KT M03/M08 A3026 RMK A01 T10341077  RH  072%=      5-min Rain = 0
KFAS 110355Z 21002KT M04/M08 A3026 RMK A01 T10371081  RH  071%=      5-min Rain = 0
KFAS 110400Z 23002KT M04/M08 A3026 RMK A01 T10411080  RH  074%=      5-min Rain = 0
KFAS 110405Z 25002KT M04/M08 A3026 RMK A01 T10431082  RH  074%=      5-min Rain = 0
KFAS 110410Z 25003KT M05/M09 A3026 RMK A01 T10481086  RH  075%=      5-min Rain = 0
KFAS 110415Z 23003KT M05/M09 A3026 RMK A01 T10531088  RH  076%=      5-min Rain = 0
KFAS 110420Z 24005KT M05/M08 A3026 RMK A01 T10521083  RH  079%=      5-min Rain = 0
KFAS 110425Z 23006KT M05/M08 A3026 RMK A01 T10501083  RH  078%=      5-min Rain = 0
KFAS 110430Z 22005KT M05/M09 A3026 RMK A01 T10541088  RH  077%=      5-min Rain = 0
KFAS 110435Z 22004KT M06/M09 A3026 RMK A01 T10561086  RH  079%=      5-min Rain = 0
KFAS 110440Z 24004KT M05/M08 A3025 RMK A01 T10491077  RH  081%=      5-min Rain = 0
KFAS 110445Z 23002KT M04/M07 A3025 RMK A01 T10411072  RH  079%=      5-min Rain = 0
KFAS 110450Z 26003KT M04/M07 A3025 RMK A01 T10391071  RH  078%=      5-min Rain = 0
KFAS 110455Z 25002KT M04/M07 A3025 RMK A01 T10381072  RH  077%=      5-min Rain = 0
KFAS 110500Z 24002KT M04/M07 A3025 RMK A01 T10391074  RH  077%=      5-min Rain = 0
KFAS 110505Z 22003KT M04/M07 A3025 RMK A01 T10391073  RH  078%=      5-min Rain = 0
KFAS 110510Z 22003KT M04/M07 A3025 RMK A01 T10361068  RH  079%=      5-min Rain = 0
KFAS 110515Z 24004KT M04/M07 A3025 RMK A01 T10351065  RH  080%=      5-min Rain = 0
KFAS 110520Z 24004KT M03/M06 A3025 RMK A01 T10291057  RH  082%=      5-min Rain = 0
KFAS 110525Z 24004KT M02/M05 A3025 RMK A01 T10241054  RH  080%=      5-min Rain = 0
KFAS 110530Z 26003KT M03/M06 A3024 RMK A01 T10271063  RH  076%=      5-min Rain = 0
KFAS 110535Z 25004KT M04/M07 A3024 RMK A01 T10391074  RH  076%=      5-min Rain = 0
KFAS 110540Z 23008KT M03/M05 A3024 RMK A01 T10311050  RH  087%=      5-min Rain = 0
KFAS 110545Z 22010KT 00/M01 A3024 RMK A01 T00031014  RH  089%=      5-min Rain = 0
KFAS 110550Z 22009KT 01/M02 A3024 RMK A01 T00111019  RH  081%=      5-min Rain = 0
KFAS 110555Z 22008KT 01/M02 A3023 RMK A01 T00101022  RH  080%=      5-min Rain = 0

Page generated in 0.0154 seconds.